sensor_id;sensor_type;location;lat;lon;timestamp;P1;durP1;ratioP1;P2;durP2;ratioP2
15155;SDS011;7678;50.058;8.306;2022-07-29T00:01:09;6.03;;;1.50;;
15155;SDS011;7678;50.058;8.306;2022-07-29T00:03:45;3.07;;;1.57;;
15155;SDS011;7678;50.058;8.306;2022-07-29T00:06:15;10.43;;;2.07;;
15155;SDS011;7678;50.058;8.306;2022-07-29T00:08:43;3.23;;;1.50;;
15155;SDS011;7678;50.058;8.306;2022-07-29T00:11:11;4.27;;;1.70;;
15155;SDS011;7678;50.058;8.306;2022-07-29T00:13:39;3.20;;;1.60;;
15155;SDS011;7678;50.058;8.306;2022-07-29T00:16:07;8.13;;;2.47;;
15155;SDS011;7678;50.058;8.306;2022-07-29T00:18:36;13.67;;;1.87;;
15155;SDS011;7678;50.058;8.306;2022-07-29T00:21:06;3.30;;;1.83;;
15155;SDS011;7678;50.058;8.306;2022-07-29T00:23:35;4.90;;;2.00;;
15155;SDS011;7678;50.058;8.306;2022-07-29T00:26:03;4.23;;;1.50;;
15155;SDS011;7678;50.058;8.306;2022-07-29T00:28:31;4.83;;;1.97;;
15155;SDS011;7678;50.058;8.306;2022-07-29T00:30:59;5.87;;;1.77;;
15155;SDS011;7678;50.058;8.306;2022-07-29T00:33:28;4.73;;;1.70;;
15155;SDS011;7678;50.058;8.306;2022-07-29T00:35:56;2.10;;;1.50;;
15155;SDS011;7678;50.058;8.306;2022-07-29T00:38:24;3.97;;;1.60;;
15155;SDS011;7678;50.058;8.306;2022-07-29T00:40:52;3.03;;;1.60;;
15155;SDS011;7678;50.058;8.306;2022-07-29T00:43:20;2.37;;;1.40;;
15155;SDS011;7678;50.058;8.306;2022-07-29T00:45:48;4.27;;;1.60;;
15155;SDS011;7678;50.058;8.306;2022-07-29T00:48:16;2.47;;;1.50;;
15155;SDS011;7678;50.058;8.306;2022-07-29T00:50:44;5.20;;;1.63;;
15155;SDS011;7678;50.058;8.306;2022-07-29T00:53:12;5.63;;;1.93;;
15155;SDS011;7678;50.058;8.306;2022-07-29T00:55:42;4.47;;;1.70;;
15155;SDS011;7678;50.058;8.306;2022-07-29T00:58:11;3.33;;;1.50;;
15155;SDS011;7678;50.058;8.306;2022-07-29T01:00:41;3.50;;;1.80;;
15155;SDS011;7678;50.058;8.306;2022-07-29T01:03:10;4.93;;;1.83;;
15155;SDS011;7678;50.058;8.306;2022-07-29T01:05:38;3.00;;;1.40;;
15155;SDS011;7678;50.058;8.306;2022-07-29T01:08:17;4.37;;;1.97;;
15155;SDS011;7678;50.058;8.306;2022-07-29T01:10:47;3.97;;;1.60;;
15155;SDS011;7678;50.058;8.306;2022-07-29T01:13:16;2.40;;;1.50;;
15155;SDS011;7678;50.058;8.306;2022-07-29T01:15:46;3.00;;;1.63;;
15155;SDS011;7678;50.058;8.306;2022-07-29T01:18:24;4.43;;;1.77;;
15155;SDS011;7678;50.058;8.306;2022-07-29T01:23:54;5.17;;;2.03;;
15155;SDS011;7678;50.058;8.306;2022-07-29T01:26:46;4.37;;;1.70;;
15155;SDS011;7678;50.058;8.306;2022-07-29T01:29:25;3.10;;;1.70;;
15155;SDS011;7678;50.058;8.306;2022-07-29T01:32:05;2.87;;;1.70;;
15155;SDS011;7678;50.058;8.306;2022-07-29T01:34:54;6.23;;;2.77;;
15155;SDS011;7678;50.058;8.306;2022-07-29T01:37:26;5.13;;;2.10;;
15155;SDS011;7678;50.058;8.306;2022-07-29T01:39:57;2.47;;;1.93;;
15155;SDS011;7678;50.058;8.306;2022-07-29T01:42:29;2.67;;;2.10;;
15155;SDS011;7678;50.058;8.306;2022-07-29T01:45:04;3.97;;;2.30;;
15155;SDS011;7678;50.058;8.306;2022-07-29T01:47:39;4.33;;;2.47;;
15155;SDS011;7678;50.058;8.306;2022-07-29T01:50:12;3.93;;;2.10;;
15155;SDS011;7678;50.058;8.306;2022-07-29T01:52:44;7.13;;;1.93;;
15155;SDS011;7678;50.058;8.306;2022-07-29T01:55:16;6.67;;;2.50;;
15155;SDS011;7678;50.058;8.306;2022-07-29T01:57:47;4.30;;;2.60;;
15155;SDS011;7678;50.058;8.306;2022-07-29T02:00:18;5.43;;;2.70;;
15155;SDS011;7678;50.058;8.306;2022-07-29T02:02:47;5.13;;;2.63;;
15155;SDS011;7678;50.058;8.306;2022-07-29T02:05:17;3.80;;;2.50;;
15155;SDS011;7678;50.058;8.306;2022-07-29T02:07:51;7.73;;;2.30;;
15155;SDS011;7678;50.058;8.306;2022-07-29T02:10:21;8.90;;;2.77;;
15155;SDS011;7678;50.058;8.306;2022-07-29T02:12:51;4.87;;;2.73;;
15155;SDS011;7678;50.058;8.306;2022-07-29T02:15:23;4.90;;;2.83;;
15155;SDS011;7678;50.058;8.306;2022-07-29T02:17:54;5.90;;;2.90;;
15155;SDS011;7678;50.058;8.306;2022-07-29T02:20:25;5.37;;;3.03;;
15155;SDS011;7678;50.058;8.306;2022-07-29T02:22:53;5.80;;;3.10;;
15155;SDS011;7678;50.058;8.306;2022-07-29T02:25:23;4.50;;;2.90;;
15155;SDS011;7678;50.058;8.306;2022-07-29T02:28:03;5.87;;;3.13;;
15155;SDS011;7678;50.058;8.306;2022-07-29T02:30:35;5.10;;;3.03;;
15155;SDS011;7678;50.058;8.306;2022-07-29T02:33:06;3.67;;;2.67;;
15155;SDS011;7678;50.058;8.306;2022-07-29T02:35:36;4.93;;;2.67;;
15155;SDS011;7678;50.058;8.306;2022-07-29T02:38:06;3.93;;;3.00;;
15155;SDS011;7678;50.058;8.306;2022-07-29T02:40:53;6.70;;;3.20;;
15155;SDS011;7678;50.058;8.306;2022-07-29T02:43:23;5.13;;;3.00;;
15155;SDS011;7678;50.058;8.306;2022-07-29T02:45:54;4.13;;;3.10;;
15155;SDS011;7678;50.058;8.306;2022-07-29T02:48:27;8.60;;;3.07;;
15155;SDS011;7678;50.058;8.306;2022-07-29T02:51:01;6.73;;;3.20;;
15155;SDS011;7678;50.058;8.306;2022-07-29T02:53:35;4.83;;;3.27;;
15155;SDS011;7678;50.058;8.306;2022-07-29T02:56:06;7.53;;;3.67;;
15155;SDS011;7678;50.058;8.306;2022-07-29T02:58:39;4.93;;;3.10;;
15155;SDS011;7678;50.058;8.306;2022-07-29T03:01:13;4.33;;;3.13;;
15155;SDS011;7678;50.058;8.306;2022-07-29T03:03:47;4.47;;;3.07;;
15155;SDS011;7678;50.058;8.306;2022-07-29T03:06:19;4.50;;;3.17;;
15155;SDS011;7678;50.058;8.306;2022-07-29T03:09:03;4.47;;;2.83;;
15155;SDS011;7678;50.058;8.306;2022-07-29T03:11:38;5.57;;;3.20;;
15155;SDS011;7678;50.058;8.306;2022-07-29T03:14:16;4.53;;;3.60;;
15155;SDS011;7678;50.058;8.306;2022-07-29T03:16:48;6.00;;;3.00;;
15155;SDS011;7678;50.058;8.306;2022-07-29T03:19:17;3.40;;;2.90;;
15155;SDS011;7678;50.058;8.306;2022-07-29T03:21:46;4.50;;;3.27;;
15155;SDS011;7678;50.058;8.306;2022-07-29T03:24:25;4.37;;;3.20;;
15155;SDS011;7678;50.058;8.306;2022-07-29T03:26:57;7.70;;;4.37;;
15155;SDS011;7678;50.058;8.306;2022-07-29T03:29:25;4.10;;;2.87;;
15155;SDS011;7678;50.058;8.306;2022-07-29T03:32:01;7.00;;;3.30;;
15155;SDS011;7678;50.058;8.306;2022-07-29T03:34:34;4.60;;;3.53;;
15155;SDS011;7678;50.058;8.306;2022-07-29T03:37:04;6.10;;;3.50;;
15155;SDS011;7678;50.058;8.306;2022-07-29T03:39:35;4.50;;;3.20;;
15155;SDS011;7678;50.058;8.306;2022-07-29T03:42:07;5.37;;;3.13;;
15155;SDS011;7678;50.058;8.306;2022-07-29T03:44:39;4.80;;;3.30;;
15155;SDS011;7678;50.058;8.306;2022-07-29T03:47:10;5.43;;;3.10;;
15155;SDS011;7678;50.058;8.306;2022-07-29T03:49:41;5.90;;;3.37;;
15155;SDS011;7678;50.058;8.306;2022-07-29T03:52:11;4.70;;;3.27;;
15155;SDS011;7678;50.058;8.306;2022-07-29T03:54:40;3.50;;;3.00;;
15155;SDS011;7678;50.058;8.306;2022-07-29T03:57:10;7.93;;;3.40;;
15155;SDS011;7678;50.058;8.306;2022-07-29T03:59:39;4.87;;;3.30;;
15155;SDS011;7678;50.058;8.306;2022-07-29T04:02:11;4.30;;;3.20;;
15155;SDS011;7678;50.058;8.306;2022-07-29T04:04:59;3.97;;;3.13;;
15155;SDS011;7678;50.058;8.306;2022-07-29T04:07:27;3.40;;;3.00;;
15155;SDS011;7678;50.058;8.306;2022-07-29T04:09:56;8.23;;;3.57;;
15155;SDS011;7678;50.058;8.306;2022-07-29T04:12:24;5.37;;;3.00;;
15155;SDS011;7678;50.058;8.306;2022-07-29T04:14:54;3.27;;;2.97;;
15155;SDS011;7678;50.058;8.306;2022-07-29T04:17:23;4.50;;;3.43;;
15155;SDS011;7678;50.058;8.306;2022-07-29T04:19:52;4.43;;;3.30;;
15155;SDS011;7678;50.058;8.306;2022-07-29T04:22:20;5.57;;;3.50;;
15155;SDS011;7678;50.058;8.306;2022-07-29T04:24:50;4.13;;;3.10;;
15155;SDS011;7678;50.058;8.306;2022-07-29T04:27:18;5.90;;;3.50;;
15155;SDS011;7678;50.058;8.306;2022-07-29T04:29:46;4.53;;;3.53;;
15155;SDS011;7678;50.058;8.306;2022-07-29T04:32:23;5.03;;;3.77;;
15155;SDS011;7678;50.058;8.306;2022-07-29T04:34:52;5.13;;;3.40;;
15155;SDS011;7678;50.058;8.306;2022-07-29T04:37:20;5.37;;;3.30;;
15155;SDS011;7678;50.058;8.306;2022-07-29T04:39:48;4.73;;;3.40;;
15155;SDS011;7678;50.058;8.306;2022-07-29T04:42:16;6.03;;;3.17;;
15155;SDS011;7678;50.058;8.306;2022-07-29T04:44:52;7.90;;;3.10;;
15155;SDS011;7678;50.058;8.306;2022-07-29T04:47:21;5.33;;;3.37;;
15155;SDS011;7678;50.058;8.306;2022-07-29T04:49:50;5.77;;;3.60;;
15155;SDS011;7678;50.058;8.306;2022-07-29T04:52:19;9.67;;;4.87;;
15155;SDS011;7678;50.058;8.306;2022-07-29T04:54:47;5.30;;;3.57;;
15155;SDS011;7678;50.058;8.306;2022-07-29T04:57:15;8.83;;;3.53;;
15155;SDS011;7678;50.058;8.306;2022-07-29T04:59:43;5.40;;;3.27;;
15155;SDS011;7678;50.058;8.306;2022-07-29T05:02:11;8.67;;;3.60;;
15155;SDS011;7678;50.058;8.306;2022-07-29T05:04:39;8.20;;;3.70;;
15155;SDS011;7678;50.058;8.306;2022-07-29T05:07:09;7.17;;;3.33;;
15155;SDS011;7678;50.058;8.306;2022-07-29T05:09:37;9.40;;;3.37;;
15155;SDS011;7678;50.058;8.306;2022-07-29T05:12:05;3.97;;;3.13;;
15155;SDS011;7678;50.058;8.306;2022-07-29T05:14:34;3.47;;;3.00;;
15155;SDS011;7678;50.058;8.306;2022-07-29T05:17:02;6.23;;;3.40;;
15155;SDS011;7678;50.058;8.306;2022-07-29T05:19:30;5.43;;;3.00;;
15155;SDS011;7678;50.058;8.306;2022-07-29T05:21:58;4.97;;;3.20;;
15155;SDS011;7678;50.058;8.306;2022-07-29T05:24:28;7.67;;;3.13;;
15155;SDS011;7678;50.058;8.306;2022-07-29T05:26:56;4.17;;;2.80;;
15155;SDS011;7678;50.058;8.306;2022-07-29T05:29:24;4.67;;;2.90;;
15155;SDS011;7678;50.058;8.306;2022-07-29T05:32:10;4.87;;;3.30;;
15155;SDS011;7678;50.058;8.306;2022-07-29T05:34:38;4.37;;;3.07;;
15155;SDS011;7678;50.058;8.306;2022-07-29T05:37:16;5.73;;;3.10;;
15155;SDS011;7678;50.058;8.306;2022-07-29T05:39:46;7.37;;;3.33;;
15155;SDS011;7678;50.058;8.306;2022-07-29T05:42:21;5.77;;;3.10;;
15155;SDS011;7678;50.058;8.306;2022-07-29T05:44:49;4.50;;;2.63;;
15155;SDS011;7678;50.058;8.306;2022-07-29T05:47:17;4.50;;;3.10;;
15155;SDS011;7678;50.058;8.306;2022-07-29T05:49:45;4.17;;;3.00;;
15155;SDS011;7678;50.058;8.306;2022-07-29T05:52:13;3.80;;;2.50;;
15155;SDS011;7678;50.058;8.306;2022-07-29T05:54:42;5.53;;;2.90;;
15155;SDS011;7678;50.058;8.306;2022-07-29T05:57:16;5.13;;;2.87;;
15155;SDS011;7678;50.058;8.306;2022-07-29T05:59:44;5.40;;;2.87;;
15155;SDS011;7678;50.058;8.306;2022-07-29T06:02:13;5.03;;;3.00;;
15155;SDS011;7678;50.058;8.306;2022-07-29T06:04:41;5.30;;;2.73;;
15155;SDS011;7678;50.058;8.306;2022-07-29T06:07:10;5.37;;;2.83;;
15155;SDS011;7678;50.058;8.306;2022-07-29T06:09:40;3.60;;;2.63;;
15155;SDS011;7678;50.058;8.306;2022-07-29T06:12:08;5.00;;;2.73;;
15155;SDS011;7678;50.058;8.306;2022-07-29T06:14:38;6.47;;;2.90;;
15155;SDS011;7678;50.058;8.306;2022-07-29T06:17:06;6.33;;;2.60;;
15155;SDS011;7678;50.058;8.306;2022-07-29T06:19:34;7.10;;;3.10;;
15155;SDS011;7678;50.058;8.306;2022-07-29T06:22:02;7.97;;;2.87;;
15155;SDS011;7678;50.058;8.306;2022-07-29T06:24:31;5.33;;;2.80;;
15155;SDS011;7678;50.058;8.306;2022-07-29T06:26:59;3.87;;;2.37;;
15155;SDS011;7678;50.058;8.306;2022-07-29T06:29:27;6.00;;;2.47;;
15155;SDS011;7678;50.058;8.306;2022-07-29T06:31:56;6.43;;;2.67;;
15155;SDS011;7678;50.058;8.306;2022-07-29T06:34:24;5.67;;;2.40;;
15155;SDS011;7678;50.058;8.306;2022-07-29T06:36:53;3.97;;;2.60;;
15155;SDS011;7678;50.058;8.306;2022-07-29T06:39:21;6.80;;;2.30;;
15155;SDS011;7678;50.058;8.306;2022-07-29T06:41:49;3.83;;;2.50;;
15155;SDS011;7678;50.058;8.306;2022-07-29T06:44:18;6.37;;;2.17;;
15155;SDS011;7678;50.058;8.306;2022-07-29T06:46:46;5.93;;;2.53;;
15155;SDS011;7678;50.058;8.306;2022-07-29T06:49:17;5.37;;;2.10;;
15155;SDS011;7678;50.058;8.306;2022-07-29T06:51:45;4.63;;;2.10;;
15155;SDS011;7678;50.058;8.306;2022-07-29T06:54:13;7.00;;;2.23;;
15155;SDS011;7678;50.058;8.306;2022-07-29T06:56:42;3.33;;;2.17;;
15155;SDS011;7678;50.058;8.306;2022-07-29T06:59:11;6.43;;;2.33;;
15155;SDS011;7678;50.058;8.306;2022-07-29T07:01:41;5.00;;;2.20;;
15155;SDS011;7678;50.058;8.306;2022-07-29T07:04:10;5.60;;;2.27;;
15155;SDS011;7678;50.058;8.306;2022-07-29T07:06:41;11.83;;;2.30;;
15155;SDS011;7678;50.058;8.306;2022-07-29T07:09:10;7.73;;;2.73;;
15155;SDS011;7678;50.058;8.306;2022-07-29T07:11:38;4.83;;;2.20;;
15155;SDS011;7678;50.058;8.306;2022-07-29T07:14:06;5.57;;;2.47;;
15155;SDS011;7678;50.058;8.306;2022-07-29T07:16:34;5.80;;;2.20;;
15155;SDS011;7678;50.058;8.306;2022-07-29T07:19:02;5.90;;;2.30;;
15155;SDS011;7678;50.058;8.306;2022-07-29T07:21:31;4.10;;;2.53;;
15155;SDS011;7678;50.058;8.306;2022-07-29T07:24:02;3.83;;;2.10;;
15155;SDS011;7678;50.058;8.306;2022-07-29T07:26:31;3.27;;;2.20;;
15155;SDS011;7678;50.058;8.306;2022-07-29T07:28:59;3.60;;;2.17;;
15155;SDS011;7678;50.058;8.306;2022-07-29T07:31:27;5.60;;;2.27;;
15155;SDS011;7678;50.058;8.306;2022-07-29T07:33:56;3.10;;;2.03;;
15155;SDS011;7678;50.058;8.306;2022-07-29T07:36:24;5.00;;;2.20;;
15155;SDS011;7678;50.058;8.306;2022-07-29T07:38:52;4.30;;;2.30;;
15155;SDS011;7678;50.058;8.306;2022-07-29T07:41:22;5.20;;;2.40;;
15155;SDS011;7678;50.058;8.306;2022-07-29T07:43:50;7.23;;;2.60;;
15155;SDS011;7678;50.058;8.306;2022-07-29T07:46:18;5.83;;;2.50;;
15155;SDS011;7678;50.058;8.306;2022-07-29T07:48:47;5.47;;;2.17;;
15155;SDS011;7678;50.058;8.306;2022-07-29T07:51:15;2.90;;;1.97;;
15155;SDS011;7678;50.058;8.306;2022-07-29T07:53:43;3.27;;;2.10;;
15155;SDS011;7678;50.058;8.306;2022-07-29T07:56:15;3.43;;;2.30;;
15155;SDS011;7678;50.058;8.306;2022-07-29T07:58:45;7.03;;;2.30;;
15155;SDS011;7678;50.058;8.306;2022-07-29T08:01:13;3.97;;;2.77;;
15155;SDS011;7678;50.058;8.306;2022-07-29T08:03:45;4.27;;;2.10;;
15155;SDS011;7678;50.058;8.306;2022-07-29T08:06:13;7.73;;;2.10;;
15155;SDS011;7678;50.058;8.306;2022-07-29T08:08:41;8.97;;;1.93;;
15155;SDS011;7678;50.058;8.306;2022-07-29T08:11:09;5.97;;;2.50;;
15155;SDS011;7678;50.058;8.306;2022-07-29T08:13:37;5.63;;;2.13;;
15155;SDS011;7678;50.058;8.306;2022-07-29T08:16:07;4.67;;;2.40;;
15155;SDS011;7678;50.058;8.306;2022-07-29T08:18:42;3.13;;;2.37;;
15155;SDS011;7678;50.058;8.306;2022-07-29T08:21:11;4.40;;;2.30;;
15155;SDS011;7678;50.058;8.306;2022-07-29T08:23:41;9.67;;;2.73;;
15155;SDS011;7678;50.058;8.306;2022-07-29T08:26:24;9.23;;;2.20;;
15155;SDS011;7678;50.058;8.306;2022-07-29T08:28:52;3.87;;;2.00;;
15155;SDS011;7678;50.058;8.306;2022-07-29T08:31:22;3.00;;;2.07;;
15155;SDS011;7678;50.058;8.306;2022-07-29T08:33:51;4.63;;;2.30;;
15155;SDS011;7678;50.058;8.306;2022-07-29T08:36:19;3.97;;;2.20;;
15155;SDS011;7678;50.058;8.306;2022-07-29T08:38:48;4.90;;;2.30;;
15155;SDS011;7678;50.058;8.306;2022-07-29T08:41:17;7.17;;;2.40;;
15155;SDS011;7678;50.058;8.306;2022-07-29T08:43:46;3.40;;;2.10;;
15155;SDS011;7678;50.058;8.306;2022-07-29T08:46:14;7.43;;;2.17;;
15155;SDS011;7678;50.058;8.306;2022-07-29T08:48:44;4.67;;;2.30;;
15155;SDS011;7678;50.058;8.306;2022-07-29T08:51:14;4.73;;;2.20;;
15155;SDS011;7678;50.058;8.306;2022-07-29T08:53:43;4.50;;;2.27;;
15155;SDS011;7678;50.058;8.306;2022-07-29T08:56:15;3.50;;;1.97;;
15155;SDS011;7678;50.058;8.306;2022-07-29T08:58:47;4.37;;;2.13;;
15155;SDS011;7678;50.058;8.306;2022-07-29T09:01:21;5.43;;;2.33;;
15155;SDS011;7678;50.058;8.306;2022-07-29T09:04:09;9.70;;;2.53;;
15155;SDS011;7678;50.058;8.306;2022-07-29T09:06:39;10.83;;;2.90;;
15155;SDS011;7678;50.058;8.306;2022-07-29T09:09:11;4.10;;;2.00;;
15155;SDS011;7678;50.058;8.306;2022-07-29T09:11:41;4.10;;;2.40;;
15155;SDS011;7678;50.058;8.306;2022-07-29T09:14:11;5.17;;;2.20;;
15155;SDS011;7678;50.058;8.306;2022-07-29T09:16:44;5.83;;;2.20;;
15155;SDS011;7678;50.058;8.306;2022-07-29T09:19:30;5.07;;;2.30;;
15155;SDS011;7678;50.058;8.306;2022-07-29T09:22:02;5.47;;;2.40;;
15155;SDS011;7678;50.058;8.306;2022-07-29T09:24:41;4.20;;;2.40;;
15155;SDS011;7678;50.058;8.306;2022-07-29T09:27:12;11.27;;;2.37;;
15155;SDS011;7678;50.058;8.306;2022-07-29T09:29:55;2.17;;;1.90;;
15155;SDS011;7678;50.058;8.306;2022-07-29T09:32:25;5.93;;;2.40;;
15155;SDS011;7678;50.058;8.306;2022-07-29T09:37:43;6.67;;;2.30;;
15155;SDS011;7678;50.058;8.306;2022-07-29T09:40:12;4.70;;;2.50;;
15155;SDS011;7678;50.058;8.306;2022-07-29T09:42:42;4.07;;;2.10;;
15155;SDS011;7678;50.058;8.306;2022-07-29T09:45:11;5.27;;;2.50;;
15155;SDS011;7678;50.058;8.306;2022-07-29T09:47:40;7.17;;;2.47;;
15155;SDS011;7678;50.058;8.306;2022-07-29T09:50:11;6.60;;;2.50;;
15155;SDS011;7678;50.058;8.306;2022-07-29T09:52:48;7.33;;;2.73;;
15155;SDS011;7678;50.058;8.306;2022-07-29T09:55:17;5.27;;;2.40;;
15155;SDS011;7678;50.058;8.306;2022-07-29T09:57:47;6.93;;;2.83;;
15155;SDS011;7678;50.058;8.306;2022-07-29T10:00:15;3.43;;;2.10;;
15155;SDS011;7678;50.058;8.306;2022-07-29T10:02:45;10.70;;;2.40;;
15155;SDS011;7678;50.058;8.306;2022-07-29T10:05:21;3.40;;;2.27;;
15155;SDS011;7678;50.058;8.306;2022-07-29T10:07:51;4.10;;;2.30;;
15155;SDS011;7678;50.058;8.306;2022-07-29T10:10:24;2.73;;;2.10;;
15155;SDS011;7678;50.058;8.306;2022-07-29T10:12:54;5.97;;;2.10;;
15155;SDS011;7678;50.058;8.306;2022-07-29T10:15:32;5.43;;;2.43;;
15155;SDS011;7678;50.058;8.306;2022-07-29T10:18:03;6.17;;;2.40;;
15155;SDS011;7678;50.058;8.306;2022-07-29T10:20:35;6.27;;;2.60;;
15155;SDS011;7678;50.058;8.306;2022-07-29T10:23:05;5.33;;;2.60;;
15155;SDS011;7678;50.058;8.306;2022-07-29T10:25:34;4.50;;;2.47;;
15155;SDS011;7678;50.058;8.306;2022-07-29T10:28:02;3.80;;;2.23;;
15155;SDS011;7678;50.058;8.306;2022-07-29T10:30:32;5.63;;;2.20;;
15155;SDS011;7678;50.058;8.306;2022-07-29T10:33:10;7.67;;;3.33;;
15155;SDS011;7678;50.058;8.306;2022-07-29T10:36:02;6.30;;;2.33;;
15155;SDS011;7678;50.058;8.306;2022-07-29T10:38:51;2.43;;;1.97;;
15155;SDS011;7678;50.058;8.306;2022-07-29T10:44:28;4.47;;;2.33;;
15155;SDS011;7678;50.058;8.306;2022-07-29T10:46:58;5.97;;;2.30;;
15155;SDS011;7678;50.058;8.306;2022-07-29T10:49:27;3.80;;;2.20;;
15155;SDS011;7678;50.058;8.306;2022-07-29T10:51:57;3.20;;;1.90;;
15155;SDS011;7678;50.058;8.306;2022-07-29T10:54:38;3.33;;;2.10;;
15155;SDS011;7678;50.058;8.306;2022-07-29T10:57:19;5.90;;;2.40;;
15155;SDS011;7678;50.058;8.306;2022-07-29T11:00:25;5.17;;;2.37;;
15155;SDS011;7678;50.058;8.306;2022-07-29T11:02:58;3.60;;;1.93;;
15155;SDS011;7678;50.058;8.306;2022-07-29T11:05:51;4.67;;;2.50;;
15155;SDS011;7678;50.058;8.306;2022-07-29T11:08:24;5.63;;;2.40;;
15155;SDS011;7678;50.058;8.306;2022-07-29T11:13:59;3.40;;;2.20;;
15155;SDS011;7678;50.058;8.306;2022-07-29T11:16:31;3.60;;;2.23;;
15155;SDS011;7678;50.058;8.306;2022-07-29T11:19:32;3.57;;;2.30;;
15155;SDS011;7678;50.058;8.306;2022-07-29T11:22:08;5.00;;;1.90;;
15155;SDS011;7678;50.058;8.306;2022-07-29T11:24:42;3.00;;;1.90;;
15155;SDS011;7678;50.058;8.306;2022-07-29T11:27:16;6.93;;;2.47;;
15155;SDS011;7678;50.058;8.306;2022-07-29T11:29:54;3.43;;;2.40;;
15155;SDS011;7678;50.058;8.306;2022-07-29T11:32:35;5.87;;;2.30;;
15155;SDS011;7678;50.058;8.306;2022-07-29T11:35:12;7.18;;;2.38;;
15155;SDS011;7678;50.058;8.306;2022-07-29T11:43:47;3.55;;;2.13;;
15155;SDS011;7678;50.058;8.306;2022-07-29T11:46:19;3.10;;;2.00;;
15155;SDS011;7678;50.058;8.306;2022-07-29T11:49:19;4.28;;;1.90;;
15155;SDS011;7678;50.058;8.306;2022-07-29T11:51:58;2.53;;;2.13;;
15155;SDS011;7678;50.058;8.306;2022-07-29T11:54:30;2.75;;;1.98;;
15155;SDS011;7678;50.058;8.306;2022-07-29T11:57:21;3.78;;;2.38;;
15155;SDS011;7678;50.058;8.306;2022-07-29T12:00:03;3.08;;;2.03;;
15155;SDS011;7678;50.058;8.306;2022-07-29T12:02:52;3.47;;;2.10;;
15155;SDS011;7678;50.058;8.306;2022-07-29T12:05:21;3.83;;;2.25;;
15155;SDS011;7678;50.058;8.306;2022-07-29T12:08:06;3.50;;;2.28;;
15155;SDS011;7678;50.058;8.306;2022-07-29T12:10:41;4.13;;;2.13;;
15155;SDS011;7678;50.058;8.306;2022-07-29T12:13:24;4.18;;;2.28;;
15155;SDS011;7678;50.058;8.306;2022-07-29T12:16:23;4.43;;;2.42;;
15155;SDS011;7678;50.058;8.306;2022-07-29T12:19:04;3.95;;;1.85;;
15155;SDS011;7678;50.058;8.306;2022-07-29T12:21:43;4.60;;;2.25;;
15155;SDS011;7678;50.058;8.306;2022-07-29T12:24:22;5.60;;;2.20;;
15155;SDS011;7678;50.058;8.306;2022-07-29T12:26:53;2.90;;;2.13;;
15155;SDS011;7678;50.058;8.306;2022-07-29T12:29:22;3.47;;;2.20;;
15155;SDS011;7678;50.058;8.306;2022-07-29T12:32:01;2.75;;;2.22;;
15155;SDS011;7678;50.058;8.306;2022-07-29T12:34:32;3.38;;;2.00;;
15155;SDS011;7678;50.058;8.306;2022-07-29T12:37:01;3.15;;;2.45;;
15155;SDS011;7678;50.058;8.306;2022-07-29T12:39:32;6.47;;;2.10;;
15155;SDS011;7678;50.058;8.306;2022-07-29T12:42:00;4.82;;;2.00;;
15155;SDS011;7678;50.058;8.306;2022-07-29T12:44:43;4.05;;;2.10;;
15155;SDS011;7678;50.058;8.306;2022-07-29T12:47:12;2.97;;;2.10;;
15155;SDS011;7678;50.058;8.306;2022-07-29T12:49:42;3.75;;;2.15;;
15155;SDS011;7678;50.058;8.306;2022-07-29T12:52:23;3.45;;;2.45;;
15155;SDS011;7678;50.058;8.306;2022-07-29T12:54:52;2.90;;;2.08;;
15155;SDS011;7678;50.058;8.306;2022-07-29T12:57:20;2.15;;;1.77;;
15155;SDS011;7678;50.058;8.306;2022-07-29T12:59:58;4.40;;;1.90;;
15155;SDS011;7678;50.058;8.306;2022-07-29T13:02:27;3.65;;;2.00;;
15155;SDS011;7678;50.058;8.306;2022-07-29T13:04:57;4.72;;;2.05;;
15155;SDS011;7678;50.058;8.306;2022-07-29T13:07:27;3.83;;;2.10;;
15155;SDS011;7678;50.058;8.306;2022-07-29T13:10:17;5.32;;;2.38;;
15155;SDS011;7678;50.058;8.306;2022-07-29T13:13:05;4.32;;;2.10;;
15155;SDS011;7678;50.058;8.306;2022-07-29T13:15:36;2.30;;;1.90;;
15155;SDS011;7678;50.058;8.306;2022-07-29T13:18:26;2.25;;;2.05;;
15155;SDS011;7678;50.058;8.306;2022-07-29T13:20:55;2.90;;;2.00;;
15155;SDS011;7678;50.058;8.306;2022-07-29T13:23:25;4.03;;;2.20;;
15155;SDS011;7678;50.058;8.306;2022-07-29T13:25:53;4.33;;;1.90;;
15155;SDS011;7678;50.058;8.306;2022-07-29T13:28:21;2.53;;;1.73;;
15155;SDS011;7678;50.058;8.306;2022-07-29T13:30:52;3.97;;;2.20;;
15155;SDS011;7678;50.058;8.306;2022-07-29T13:33:20;3.40;;;2.00;;
15155;SDS011;7678;50.058;8.306;2022-07-29T13:35:48;4.30;;;2.10;;
15155;SDS011;7678;50.058;8.306;2022-07-29T13:38:19;6.00;;;2.57;;
15155;SDS011;7678;50.058;8.306;2022-07-29T13:40:56;2.63;;;2.43;;
15155;SDS011;7678;50.058;8.306;2022-07-29T13:43:25;4.90;;;2.57;;
15155;SDS011;7678;50.058;8.306;2022-07-29T13:45:53;3.93;;;2.70;;
15155;SDS011;7678;50.058;8.306;2022-07-29T13:48:22;5.07;;;2.97;;
15155;SDS011;7678;50.058;8.306;2022-07-29T13:50:50;4.23;;;2.40;;
15155;SDS011;7678;50.058;8.306;2022-07-29T13:53:20;7.20;;;2.43;;
15155;SDS011;7678;50.058;8.306;2022-07-29T13:55:52;4.67;;;2.03;;
15155;SDS011;7678;50.058;8.306;2022-07-29T13:58:21;4.77;;;2.50;;
15155;SDS011;7678;50.058;8.306;2022-07-29T14:00:49;3.47;;;2.33;;
15155;SDS011;7678;50.058;8.306;2022-07-29T14:03:17;3.17;;;2.17;;
15155;SDS011;7678;50.058;8.306;2022-07-29T14:05:45;2.57;;;2.33;;
15155;SDS011;7678;50.058;8.306;2022-07-29T14:08:13;3.77;;;2.47;;
15155;SDS011;7678;50.058;8.306;2022-07-29T14:10:43;3.43;;;2.07;;
15155;SDS011;7678;50.058;8.306;2022-07-29T14:13:11;3.47;;;2.57;;
15155;SDS011;7678;50.058;8.306;2022-07-29T14:15:51;2.80;;;2.13;;
15155;SDS011;7678;50.058;8.306;2022-07-29T14:18:19;4.27;;;2.30;;
15155;SDS011;7678;50.058;8.306;2022-07-29T14:20:47;3.33;;;2.17;;
15155;SDS011;7678;50.058;8.306;2022-07-29T14:23:17;6.43;;;2.70;;
15155;SDS011;7678;50.058;8.306;2022-07-29T14:25:47;3.23;;;2.37;;
15155;SDS011;7678;50.058;8.306;2022-07-29T14:28:15;5.33;;;2.30;;
15155;SDS011;7678;50.058;8.306;2022-07-29T14:30:43;2.63;;;2.13;;
15155;SDS011;7678;50.058;8.306;2022-07-29T14:33:11;4.47;;;2.50;;
15155;SDS011;7678;50.058;8.306;2022-07-29T14:35:39;4.03;;;2.70;;
15155;SDS011;7678;50.058;8.306;2022-07-29T14:38:07;2.30;;;1.80;;
15155;SDS011;7678;50.058;8.306;2022-07-29T14:40:36;3.43;;;2.60;;
15155;SDS011;7678;50.058;8.306;2022-07-29T14:43:05;5.57;;;2.60;;
15155;SDS011;7678;50.058;8.306;2022-07-29T14:45:33;4.60;;;2.30;;
15155;SDS011;7678;50.058;8.306;2022-07-29T14:48:01;4.73;;;2.40;;
15155;SDS011;7678;50.058;8.306;2022-07-29T14:50:30;4.83;;;2.40;;
15155;SDS011;7678;50.058;8.306;2022-07-29T14:52:58;3.77;;;2.30;;
15155;SDS011;7678;50.058;8.306;2022-07-29T14:55:26;3.83;;;2.00;;
15155;SDS011;7678;50.058;8.306;2022-07-29T14:57:54;2.70;;;2.03;;
15155;SDS011;7678;50.058;8.306;2022-07-29T15:00:35;3.53;;;2.13;;
15155;SDS011;7678;50.058;8.306;2022-07-29T15:03:04;3.80;;;1.93;;
15155;SDS011;7678;50.058;8.306;2022-07-29T15:05:36;3.40;;;2.30;;
15155;SDS011;7678;50.058;8.306;2022-07-29T15:08:04;2.90;;;1.80;;
15155;SDS011;7678;50.058;8.306;2022-07-29T15:10:34;5.63;;;1.90;;
15155;SDS011;7678;50.058;8.306;2022-07-29T15:13:02;4.10;;;1.83;;
15155;SDS011;7678;50.058;8.306;2022-07-29T15:15:30;4.63;;;1.97;;
15155;SDS011;7678;50.058;8.306;2022-07-29T15:17:59;4.13;;;1.90;;
15155;SDS011;7678;50.058;8.306;2022-07-29T15:20:28;3.73;;;1.90;;
15155;SDS011;7678;50.058;8.306;2022-07-29T15:22:56;5.53;;;2.27;;
15155;SDS011;7678;50.058;8.306;2022-07-29T15:25:24;6.47;;;2.60;;
15155;SDS011;7678;50.058;8.306;2022-07-29T15:27:53;18.23;;;3.80;;
15155;SDS011;7678;50.058;8.306;2022-07-29T15:30:26;7.00;;;3.77;;
15155;SDS011;7678;50.058;8.306;2022-07-29T15:33:00;8.60;;;3.97;;
15155;SDS011;7678;50.058;8.306;2022-07-29T15:35:29;7.70;;;4.13;;
15155;SDS011;7678;50.058;8.306;2022-07-29T15:37:57;10.30;;;4.83;;
15155;SDS011;7678;50.058;8.306;2022-07-29T15:40:25;10.57;;;4.27;;
15155;SDS011;7678;50.058;8.306;2022-07-29T15:42:54;7.70;;;4.80;;
15155;SDS011;7678;50.058;8.306;2022-07-29T15:45:23;7.67;;;4.70;;